Time;durP1;ratioP1;P1;durP2;ratioP2;P2;SDS_P1;SDS_P2;PMS_P1;PMS_P2;Temp;Humidity;BMP_temperature;BMP_pressure;BME280_temperature;BME280_humidity;BME280_pressure;Samples;Min_cycle;Max_cycle;Signal;HPM_P1;HPM_P2
2022/05/05 00:01:38;;;;;;;;;;;20.30;93.20;;;;;;4996424;28;19925;-58
2022/05/05 00:04:06;;;;;;;;;;;20.30;93.20;;;;;;5007285;28;19932;-59
2022/05/05 00:06:33;;;;;;;;;;;20.30;93.30;;;;;;5008667;28;19926;-59
2022/05/05 00:09:00;;;;;;;;;;;20.30;93.30;;;;;;4999659;28;20432;-57
2022/05/05 00:14:28;;;;;;;;;;;20.30;93.20;;;;;;5006720;28;19929;-59
2022/05/05 00:16:57;;;;;;;;;;;20.20;93.20;;;;;;4990417;28;19929;-60
2022/05/05 00:19:25;;;;;;;;;;;20.30;93.20;;;;;;4993129;28;20040;-59
2022/05/05 00:21:52;;;;;;;;;;;20.30;93.20;;;;;;5033898;28;19940;-57
2022/05/05 00:24:20;;;;;;;;;;;20.20;93.30;;;;;;4987691;28;19930;-59
2022/05/05 00:26:47;;;;;;;;;;;20.20;93.20;;;;;;4993518;28;20251;-57
2022/05/05 00:29:15;;;;;;;;;;;20.20;93.20;;;;;;5007634;28;19932;-56
2022/05/05 00:31:43;;;;;;;;;;;20.30;93.20;;;;;;5005070;28;19937;-59
2022/05/05 00:34:10;;;;;;;;;;;20.20;93.20;;;;;;4988739;28;19930;-58
2022/05/05 00:36:37;;;;;;;;;;;20.20;93.20;;;;;;4990145;28;19934;-58
2022/05/05 00:39:05;;;;;;;;;;;20.30;93.20;;;;;;5006907;28;19929;-59
2022/05/05 00:41:36;;;;;;;;;;;20.20;93.20;;;;;;5005664;28;19933;-59
2022/05/05 00:44:04;;;;;;;;;;;20.20;93.20;;;;;;5006279;28;20397;-57
2022/05/05 00:46:31;;;;;;;;;;;20.20;93.20;;;;;;5007281;28;19930;-57
2022/05/05 00:48:59;;;;;;;;;;;20.20;93.20;;;;;;4988212;28;19940;-61
2022/05/05 00:51:27;;;;;;;;;;;20.20;93.20;;;;;;4998850;28;19937;-58
2022/05/05 00:53:57;;;;;;;;;;;20.20;93.40;;;;;;4996896;28;20305;-60
2022/05/05 00:56:24;;;;;;;;;;;20.20;93.20;;;;;;5006463;28;19929;-59
2022/05/05 00:58:55;;;;;;;;;;;20.20;93.20;;;;;;5024423;28;19929;-57
2022/05/05 01:01:30;;;;;;;;;;;20.20;93.20;;;;;;5001778;28;20488;-58
2022/05/05 01:03:57;;;;;;;;;;;20.20;93.20;;;;;;5005510;28;19978;-59
2022/05/05 01:06:24;;;;;;;;;;;20.20;93.20;;;;;;4996378;28;19937;-60
2022/05/05 01:08:51;;;;;;;;;;;20.20;93.20;;;;;;5006370;28;20420;-58
2022/05/05 01:11:19;;;;;;;;;;;20.20;93.20;;;;;;4992253;28;19945;-59
2022/05/05 01:13:46;;;;;;;;;;;20.20;93.20;;;;;;4998168;28;19929;-62
2022/05/05 01:16:14;;;;;;;;;;;20.20;93.20;;;;;;5012940;28;19929;-60
2022/05/05 01:18:41;;;;;;;;;;;20.20;93.20;;;;;;4997730;28;19930;-60
2022/05/05 01:21:08;;;;;;;;;;;20.20;93.20;;;;;;4999345;28;19937;-58
2022/05/05 01:23:35;;;;;;;;;;;20.20;93.20;;;;;;4987510;28;19926;-59
2022/05/05 01:28:48;;;;;;;;;;;20.20;93.20;;;;;;5003930;28;19937;-58
2022/05/05 01:31:15;;;;;;;;;;;20.20;93.20;;;;;;5004510;28;19953;-55
2022/05/05 01:33:43;;;;;;;;;;;20.20;93.20;;;;;;4998236;28;20045;-57
2022/05/05 01:36:11;;;;;;;;;;;20.20;93.10;;;;;;5004612;28;19929;-58
2022/05/05 01:38:44;;;;;;;;;;;20.20;93.10;;;;;;4996066;28;19945;-58
2022/05/05 01:41:12;;;;;;;;;;;20.20;93.20;;;;;;4997370;28;19930;-59
2022/05/05 01:43:40;;;;;;;;;;;20.20;93.20;;;;;;4989412;28;19934;-59
2022/05/05 01:46:07;;;;;;;;;;;20.20;93.20;;;;;;4996676;28;19953;-59
2022/05/05 01:48:35;;;;;;;;;;;20.20;93.40;;;;;;4989168;28;20017;-57
2022/05/05 01:51:02;;;;;;;;;;;20.10;93.10;;;;;;4997620;28;20290;-59
2022/05/05 01:53:36;;;;;;;;;;;20.20;93.20;;;;;;5003219;28;19929;-61
2022/05/05 01:56:08;;;;;;;;;;;20.20;93.20;;;;;;5002158;28;20314;-60
2022/05/05 01:58:35;;;;;;;;;;;20.10;93.10;;;;;;5017175;28;20369;-56
2022/05/05 02:01:02;;;;;;;;;;;20.10;93.10;;;;;;4996731;28;19945;-59
2022/05/05 02:03:30;;;;;;;;;;;20.10;93.20;;;;;;4987297;28;20389;-59
2022/05/05 02:05:57;;;;;;;;;;;20.10;93.10;;;;;;4996320;28;19948;-59
2022/05/05 02:08:24;;;;;;;;;;;20.10;93.10;;;;;;4988861;28;19926;-59
2022/05/05 02:10:51;;;;;;;;;;;20.10;93.10;;;;;;4987204;28;19930;-57
2022/05/05 02:13:19;;;;;;;;;;;20.10;93.20;;;;;;4998606;28;20352;-58
2022/05/05 02:15:46;;;;;;;;;;;20.10;93.10;;;;;;5012642;28;19930;-59
2022/05/05 02:18:14;;;;;;;;;;;20.10;93.10;;;;;;4998603;28;19930;-56
2022/05/05 02:20:41;;;;;;;;;;;20.10;93.10;;;;;;4999325;28;19930;-60
2022/05/05 02:23:09;;;;;;;;;;;20.10;93.10;;;;;;5002908;28;19932;-58
2022/05/05 02:25:36;;;;;;;;;;;20.20;93.20;;;;;;4989410;28;19929;-58
2022/05/05 02:28:04;;;;;;;;;;;20.10;93.10;;;;;;4994436;28;19930;-59
2022/05/05 02:30:31;;;;;;;;;;;20.10;93.20;;;;;;5002617;28;19936;-57
2022/05/05 02:32:58;;;;;;;;;;;20.10;93.10;;;;;;4990787;28;19929;-59
2022/05/05 02:35:25;;;;;;;;;;;20.10;93.10;;;;;;5006478;28;20324;-58
2022/05/05 02:40:38;;;;;;;;;;;20.10;93.20;;;;;;5010656;28;19933;-57
2022/05/05 02:43:06;;;;;;;;;;;20.10;93.20;;;;;;5002569;28;19925;-61
2022/05/05 02:45:34;;;;;;;;;;;20.10;93.20;;;;;;5008308;28;19929;-58
2022/05/05 02:48:01;;;;;;;;;;;20.10;93.20;;;;;;4993410;28;19930;-57
2022/05/05 02:50:28;;;;;;;;;;;20.10;93.10;;;;;;5006103;28;19934;-58
2022/05/05 02:52:55;;;;;;;;;;;20.10;93.20;;;;;;5003937;28;19951;-58
2022/05/05 02:55:22;;;;;;;;;;;20.10;93.20;;;;;;5003054;28;20405;-59
2022/05/05 02:57:50;;;;;;;;;;;20.10;93.20;;;;;;5012263;28;19937;-58
2022/05/05 03:00:17;;;;;;;;;;;20.10;93.20;;;;;;5001800;28;20254;-59
2022/05/05 03:02:45;;;;;;;;;;;20.10;93.20;;;;;;5006977;28;19933;-56
2022/05/05 03:05:15;;;;;;;;;;;20.10;93.20;;;;;;5006892;28;19941;-59
2022/05/05 03:07:43;;;;;;;;;;;20.10;93.20;;;;;;5002355;28;19937;-57
2022/05/05 03:10:11;;;;;;;;;;;20.10;93.20;;;;;;5002717;28;20036;-57
2022/05/05 03:12:38;;;;;;;;;;;20.10;93.20;;;;;;4995303;28;19926;-59
2022/05/05 03:15:06;;;;;;;;;;;20.10;93.20;;;;;;4992936;28;20401;-59
2022/05/05 03:17:34;;;;;;;;;;;20.10;93.20;;;;;;4993846;28;20053;-60
2022/05/05 03:20:02;;;;;;;;;;;20.10;93.20;;;;;;5006799;28;19930;-58
2022/05/05 03:22:29;;;;;;;;;;;20.10;93.20;;;;;;5038886;28;19925;-58
2022/05/05 03:24:56;;;;;;;;;;;20.10;93.20;;;;;;5006377;28;19929;-60
2022/05/05 03:27:24;;;;;;;;;;;20.10;93.20;;;;;;4994702;28;19956;-59
2022/05/05 03:29:51;;;;;;;;;;;20.10;93.20;;;;;;4995782;28;19945;-59
2022/05/05 03:32:18;;;;;;;;;;;20.10;93.20;;;;;;4990007;28;19936;-56
2022/05/05 03:34:46;;;;;;;;;;;20.10;93.20;;;;;;4994022;28;19936;-56
2022/05/05 03:37:13;;;;;;;;;;;20.10;93.20;;;;;;4998374;28;19941;-61
2022/05/05 03:39:40;;;;;;;;;;;20.10;93.20;;;;;;4999983;28;19945;-57
2022/05/05 03:42:07;;;;;;;;;;;20.10;93.30;;;;;;5000351;28;19930;-59
2022/05/05 03:44:34;;;;;;;;;;;20.10;93.30;;;;;;4998250;28;20415;-57
2022/05/05 03:47:02;;;;;;;;;;;20.00;93.20;;;;;;4990844;28;19930;-56
2022/05/05 03:49:29;;;;;;;;;;;20.00;93.30;;;;;;5001234;28;19936;-57
2022/05/05 03:51:56;;;;;;;;;;;20.10;93.30;;;;;;4990391;28;20270;-58
2022/05/05 03:54:24;;;;;;;;;;;20.10;93.30;;;;;;5004206;28;19941;-59
2022/05/05 03:56:51;;;;;;;;;;;20.10;93.30;;;;;;4988525;28;19934;-60
2022/05/05 03:59:18;;;;;;;;;;;20.00;93.30;;;;;;5014650;28;20300;-58
2022/05/05 04:01:45;;;;;;;;;;;20.10;93.30;;;;;;5000279;28;19952;-57
2022/05/05 04:04:12;;;;;;;;;;;20.00;93.30;;;;;;4995840;28;19929;-58
2022/05/05 04:06:39;;;;;;;;;;;20.00;93.30;;;;;;5002539;28;20016;-58
2022/05/05 04:09:06;;;;;;;;;;;20.00;93.30;;;;;;5001815;28;19937;-58
2022/05/05 04:11:34;;;;;;;;;;;20.00;93.30;;;;;;5001761;28;19949;-59
2022/05/05 04:14:02;;;;;;;;;;;20.00;93.30;;;;;;4988824;28;19941;-58
2022/05/05 04:16:33;;;;;;;;;;;20.00;93.30;;;;;;4997396;28;19937;-60
2022/05/05 04:19:03;;;;;;;;;;;20.00;93.30;;;;;;4989988;28;19989;-59
2022/05/05 04:21:31;;;;;;;;;;;20.00;93.30;;;;;;4995398;28;19933;-59
2022/05/05 04:23:58;;;;;;;;;;;20.00;93.30;;;;;;5002613;28;19956;-59
2022/05/05 04:26:25;;;;;;;;;;;20.00;93.30;;;;;;4992857;28;19930;-58
2022/05/05 04:28:53;;;;;;;;;;;20.00;93.30;;;;;;4987863;28;19933;-60
2022/05/05 04:31:21;;;;;;;;;;;20.00;93.30;;;;;;4996646;28;19937;-58
2022/05/05 04:33:49;;;;;;;;;;;20.00;93.30;;;;;;4988758;28;19944;-59
2022/05/05 04:36:16;;;;;;;;;;;20.00;93.30;;;;;;4996427;28;20317;-58
2022/05/05 04:38:44;;;;;;;;;;;20.00;93.30;;;;;;4994126;28;19937;-56
2022/05/05 04:41:11;;;;;;;;;;;20.00;93.30;;;;;;5000210;28;19934;-59
2022/05/05 04:43:38;;;;;;;;;;;20.00;93.30;;;;;;4991684;28;19926;-59
2022/05/05 04:46:06;;;;;;;;;;;20.00;93.30;;;;;;5005901;28;19936;-58
2022/05/05 04:48:33;;;;;;;;;;;20.00;93.30;;;;;;5002460;28;19925;-59
2022/05/05 04:51:00;;;;;;;;;;;20.00;93.30;;;;;;5005977;28;20493;-59
2022/05/05 04:53:27;;;;;;;;;;;20.00;93.30;;;;;;4988846;28;20299;-57
2022/05/05 04:55:54;;;;;;;;;;;20.00;93.30;;;;;;4990599;28;20447;-58
2022/05/05 04:58:23;;;;;;;;;;;20.00;93.40;;;;;;5010644;28;20004;-59
2022/05/05 05:00:50;;;;;;;;;;;20.00;93.40;;;;;;4994475;28;19938;-60
2022/05/05 05:03:32;;;;;;;;;;;20.00;93.40;;;;;;4989774;28;22287;-59
2022/05/05 05:06:01;;;;;;;;;;;20.00;93.40;;;;;;4989716;28;19930;-58
2022/05/05 05:08:29;;;;;;;;;;;20.00;93.40;;;;;;4990374;28;19929;-60
2022/05/05 05:10:56;;;;;;;;;;;20.00;93.40;;;;;;4998848;28;19930;-58
2022/05/05 05:13:24;;;;;;;;;;;20.00;93.40;;;;;;4989902;28;19926;-58
2022/05/05 05:15:51;;;;;;;;;;;20.00;93.40;;;;;;5005893;28;19975;-60
2022/05/05 05:18:18;;;;;;;;;;;20.00;93.40;;;;;;4988153;28;20028;-58
2022/05/05 05:20:45;;;;;;;;;;;20.00;93.40;;;;;;4994958;28;19953;-57
2022/05/05 05:23:13;;;;;;;;;;;20.00;93.40;;;;;;4994378;28;19941;-57
2022/05/05 05:25:40;;;;;;;;;;;20.00;93.40;;;;;;5006883;28;19937;-60
2022/05/05 05:28:07;;;;;;;;;;;20.00;93.40;;;;;;5005888;28;19941;-58
2022/05/05 05:30:39;;;;;;;;;;;20.00;93.40;;;;;;5009862;28;20366;-60
2022/05/05 05:33:06;;;;;;;;;;;20.00;93.40;;;;;;4993075;28;19930;-60
2022/05/05 05:35:34;;;;;;;;;;;20.00;93.40;;;;;;5000351;28;19930;-59
2022/05/05 05:38:01;;;;;;;;;;;20.00;93.40;;;;;;4988798;28;19930;-57
2022/05/05 05:40:28;;;;;;;;;;;20.00;93.40;;;;;;5000522;28;20337;-58
2022/05/05 05:42:55;;;;;;;;;;;20.00;93.40;;;;;;4991004;28;19936;-59
2022/05/05 05:45:23;;;;;;;;;;;20.00;93.40;;;;;;5005909;28;20308;-59
2022/05/05 05:47:50;;;;;;;;;;;20.00;93.40;;;;;;5007839;28;19936;-59
2022/05/05 05:50:17;;;;;;;;;;;20.00;93.40;;;;;;5002980;28;19933;-58
2022/05/05 05:52:47;;;;;;;;;;;20.00;93.40;;;;;;4998169;28;20250;-62
2022/05/05 05:55:15;;;;;;;;;;;20.00;93.40;;;;;;5009969;28;19929;-60
2022/05/05 05:57:42;;;;;;;;;;;20.00;93.40;;;;;;4999346;28;20265;-59
2022/05/05 06:00:09;;;;;;;;;;;19.90;93.40;;;;;;5003907;28;19929;-59
2022/05/05 06:05:25;;;;;;;;;;;20.00;93.40;;;;;;4997954;28;19997;-56
2022/05/05 06:07:57;;;;;;;;;;;19.90;93.40;;;;;;4993124;28;20397;-59
2022/05/05 06:10:25;;;;;;;;;;;19.90;93.40;;;;;;4999431;28;19948;-58
2022/05/05 06:12:53;;;;;;;;;;;20.00;93.50;;;;;;4995529;28;19934;-59
2022/05/05 06:15:20;;;;;;;;;;;19.90;93.40;;;;;;5007727;28;19937;-59
2022/05/05 06:17:47;;;;;;;;;;;19.90;93.40;;;;;;4995194;28;19926;-58
2022/05/05 06:20:14;;;;;;;;;;;19.90;93.40;;;;;;5002280;28;19929;-59
2022/05/05 06:22:42;;;;;;;;;;;19.90;93.40;;;;;;5009647;28;20000;-59
2022/05/05 06:25:11;;;;;;;;;;;20.00;93.70;;;;;;5006370;28;19925;-58
2022/05/05 06:27:38;;;;;;;;;;;19.90;93.40;;;;;;5005336;28;19926;-58
2022/05/05 06:30:06;;;;;;;;;;;19.90;93.40;;;;;;4998166;28;19932;-59
2022/05/05 06:32:34;;;;;;;;;;;19.90;93.40;;;;;;5009073;28;19929;-57
2022/05/05 06:35:02;;;;;;;;;;;19.90;93.50;;;;;;5001136;28;19968;-59
2022/05/05 06:37:29;;;;;;;;;;;19.90;93.40;;;;;;4993557;28;19925;-60
2022/05/05 06:39:56;;;;;;;;;;;19.90;93.50;;;;;;5005131;28;19930;-60
2022/05/05 06:42:23;;;;;;;;;;;19.90;93.50;;;;;;5003292;28;20317;-58
2022/05/05 06:44:50;;;;;;;;;;;19.90;93.50;;;;;;5005199;28;19930;-60
2022/05/05 06:47:18;;;;;;;;;;;19.90;93.50;;;;;;5013270;28;19930;-58
2022/05/05 06:49:45;;;;;;;;;;;19.90;93.50;;;;;;5009780;28;20313;-59
2022/05/05 06:52:12;;;;;;;;;;;19.90;93.50;;;;;;4992569;28;19929;-59
2022/05/05 06:55:00;;;;;;;;;;;19.90;93.50;;;;;;4993541;28;19934;-59
2022/05/05 06:57:27;;;;;;;;;;;19.90;93.50;;;;;;5007543;28;20289;-59
2022/05/05 06:59:54;;;;;;;;;;;19.90;93.50;;;;;;5012276;28;19933;-59
2022/05/05 07:02:22;;;;;;;;;;;19.90;93.50;;;;;;4994844;28;19926;-58
2022/05/05 07:07:35;;;;;;;;;;;19.90;93.50;;;;;;4991934;28;19936;-59
2022/05/05 07:12:48;;;;;;;;;;;19.90;93.50;;;;;;4999487;28;20173;-59
2022/05/05 07:15:15;;;;;;;;;;;19.90;93.50;;;;;;5003754;28;20480;-60
2022/05/05 07:17:43;;;;;;;;;;;19.90;93.50;;;;;;5005488;28;20297;-59
2022/05/05 07:20:10;;;;;;;;;;;19.90;93.60;;;;;;4995836;28;20324;-58
2022/05/05 07:22:37;;;;;;;;;;;19.90;93.60;;;;;;5004955;28;19929;-58
2022/05/05 07:25:05;;;;;;;;;;;19.90;93.60;;;;;;4996035;28;19948;-58
2022/05/05 07:27:32;;;;;;;;;;;19.90;93.60;;;;;;4993513;28;19930;-56
2022/05/05 07:29:59;;;;;;;;;;;19.90;93.60;;;;;;4996435;28;19936;-58
2022/05/05 07:32:26;;;;;;;;;;;19.90;93.60;;;;;;4993480;28;20025;-58
2022/05/05 07:34:59;;;;;;;;;;;19.90;93.60;;;;;;4991076;28;19941;-60
2022/05/05 07:37:26;;;;;;;;;;;19.90;93.60;;;;;;4996519;28;20384;-59
2022/05/05 07:39:54;;;;;;;;;;;19.90;93.60;;;;;;5009022;28;19925;-58
2022/05/05 07:42:21;;;;;;;;;;;19.90;93.60;;;;;;5001120;28;19933;-59
2022/05/05 07:44:48;;;;;;;;;;;19.90;93.60;;;;;;4992173;28;19933;-60
2022/05/05 07:47:15;;;;;;;;;;;19.90;93.60;;;;;;5000478;28;19952;-60
2022/05/05 07:49:42;;;;;;;;;;;19.90;93.60;;;;;;4993506;28;19933;-61
2022/05/05 07:52:10;;;;;;;;;;;19.90;93.60;;;;;;5003894;28;20355;-59
2022/05/05 07:54:43;;;;;;;;;;;19.90;93.60;;;;;;5004541;28;19929;-54
2022/05/05 07:57:12;;;;;;;;;;;19.90;93.60;;;;;;5007194;28;20335;-59
2022/05/05 07:59:39;;;;;;;;;;;19.90;93.60;;;;;;5022660;28;20411;-58
2022/05/05 08:02:13;;;;;;;;;;;19.90;93.60;;;;;;5001001;28;19930;-59
2022/05/05 08:04:41;;;;;;;;;;;19.90;93.60;;;;;;4992926;28;19933;-61
2022/05/05 08:07:08;;;;;;;;;;;19.90;93.60;;;;;;5003348;28;20382;-58
2022/05/05 08:09:36;;;;;;;;;;;19.90;93.60;;;;;;4994004;28;19926;-57
2022/05/05 08:12:23;;;;;;;;;;;19.90;93.60;;;;;;4988317;28;19926;-59
2022/05/05 08:14:50;;;;;;;;;;;19.90;93.60;;;;;;5001173;28;19926;-59
2022/05/05 08:17:17;;;;;;;;;;;19.90;93.60;;;;;;5011410;28;20373;-58
2022/05/05 08:19:45;;;;;;;;;;;19.90;93.70;;;;;;4996510;28;19937;-60
2022/05/05 08:22:12;;;;;;;;;;;19.90;93.70;;;;;;4999370;28;20408;-58
2022/05/05 08:30:10;;;;;;;;;;;19.90;93.70;;;;;;4992769;28;19937;-59
2022/05/05 08:32:38;;;;;;;;;;;19.90;93.70;;;;;;4991079;28;19933;-59
2022/05/05 08:35:05;;;;;;;;;;;19.90;93.70;;;;;;4998479;28;19929;-59
2022/05/05 08:37:32;;;;;;;;;;;19.90;93.70;;;;;;5002344;28;19930;-58
2022/05/05 08:39:59;;;;;;;;;;;20.00;93.70;;;;;;4992845;28;19932;-60
2022/05/05 08:42:26;;;;;;;;;;;19.90;93.70;;;;;;4989886;28;19925;-59
2022/05/05 08:44:53;;;;;;;;;;;19.90;93.70;;;;;;4996142;28;19933;-59
2022/05/05 08:47:22;;;;;;;;;;;20.00;93.70;;;;;;5000620;28;19926;-57
2022/05/05 08:49:49;;;;;;;;;;;19.90;93.70;;;;;;4996563;28;19929;-59
2022/05/05 08:52:18;;;;;;;;;;;19.90;93.80;;;;;;5000786;28;20333;-60
2022/05/05 08:54:47;;;;;;;;;;;19.90;93.70;;;;;;4995048;28;19929;-59
2022/05/05 08:57:14;;;;;;;;;;;20.00;93.80;;;;;;5007059;28;19934;-58
2022/05/05 08:59:41;;;;;;;;;;;19.90;93.80;;;;;;5016042;28;20305;-60
2022/05/05 09:02:10;;;;;;;;;;;19.90;93.80;;;;;;5004543;28;19925;-60
2022/05/05 09:04:41;;;;;;;;;;;19.90;93.80;;;;;;4990151;28;19930;-59
2022/05/05 09:07:09;;;;;;;;;;;19.90;93.80;;;;;;5004350;28;19933;-60
2022/05/05 09:09:36;;;;;;;;;;;19.90;93.90;;;;;;5000628;28;20412;-58
2022/05/05 09:12:16;;;;;;;;;;;19.90;93.80;;;;;;5006651;28;19929;-60
2022/05/05 09:14:47;;;;;;;;;;;19.90;93.90;;;;;;5002891;28;19930;-59
2022/05/05 09:17:16;;;;;;;;;;;19.90;93.90;;;;;;4999323;28;20425;-59
2022/05/05 09:19:47;;;;;;;;;;;20.00;93.90;;;;;;4994329;28;19929;-57
2022/05/05 09:22:16;;;;;;;;;;;19.90;93.90;;;;;;5006344;28;19929;-59
2022/05/05 09:24:44;;;;;;;;;;;19.90;93.90;;;;;;5002726;28;19936;-59
2022/05/05 09:27:21;;;;;;;;;;;19.90;93.90;;;;;;5007288;28;19926;-57
2022/05/05 09:30:01;;;;;;;;;;;20.00;93.90;;;;;;4990893;28;19929;-58
2022/05/05 09:32:28;;;;;;;;;;;19.90;93.90;;;;;;4988139;28;19937;-61
2022/05/05 09:34:59;;;;;;;;;;;20.00;93.90;;;;;;4994176;28;19933;-60
2022/05/05 09:37:27;;;;;;;;;;;20.00;94.00;;;;;;4992719;28;19930;-59
2022/05/05 09:39:55;;;;;;;;;;;19.90;93.90;;;;;;4991739;28;19933;-58
2022/05/05 09:42:34;;;;;;;;;;;20.00;94.00;;;;;;4988174;28;20392;-60
2022/05/05 09:45:12;;;;;;;;;;;19.90;93.90;;;;;;4997781;28;19930;-58
2022/05/05 09:47:41;;;;;;;;;;;19.90;94.00;;;;;;4997093;28;19960;-58
2022/05/05 09:50:08;;;;;;;;;;;19.90;93.90;;;;;;5008233;28;19932;-57
2022/05/05 09:58:12;;;;;;;;;;;19.90;94.00;;;;;;5005450;28;19925;-60
2022/05/05 10:05:56;;;;;;;;;;;20.00;94.00;;;;;;4989873;28;19934;-59
2022/05/05 10:08:26;;;;;;;;;;;19.90;94.00;;;;;;4988181;28;19949;-59
2022/05/05 10:10:53;;;;;;;;;;;19.90;94.00;;;;;;5003399;28;20316;-62
2022/05/05 10:13:23;;;;;;;;;;;19.90;94.00;;;;;;5006695;28;19929;-57
2022/05/05 10:15:51;;;;;;;;;;;19.90;94.00;;;;;;5012129;28;19929;-59
2022/05/05 10:18:26;;;;;;;;;;;19.90;94.00;;;;;;4996861;28;19930;-58
2022/05/05 10:20:54;;;;;;;;;;;19.90;94.00;;;;;;4996051;28;19926;-60
2022/05/05 10:23:30;;;;;;;;;;;19.90;94.00;;;;;;4988321;28;19926;-59
2022/05/05 10:25:58;;;;;;;;;;;19.90;94.00;;;;;;4999722;28;19936;-60
2022/05/05 10:28:41;;;;;;;;;;;19.90;94.00;;;;;;4995649;28;19930;-58
2022/05/05 10:31:12;;;;;;;;;;;19.90;94.00;;;;;;5000085;28;20392;-58
2022/05/05 10:33:57;;;;;;;;;;;19.90;94.00;;;;;;5006414;28;20005;-59
2022/05/05 10:36:24;;;;;;;;;;;19.90;94.00;;;;;;5006267;28;20552;-57
2022/05/05 10:38:52;;;;;;;;;;;19.90;94.00;;;;;;4992035;28;19929;-57
2022/05/05 10:41:39;;;;;;;;;;;20.00;94.00;;;;;;5008861;28;20331;-56
2022/05/05 10:44:25;;;;;;;;;;;19.90;93.90;;;;;;4992213;28;19936;-60
2022/05/05 10:47:02;;;;;;;;;;;19.90;93.90;;;;;;5007384;28;19940;-60
2022/05/05 10:49:42;;;;;;;;;;;19.90;94.00;;;;;;4992214;28;20420;-59
2022/05/05 10:52:11;;;;;;;;;;;19.90;94.00;;;;;;4994976;28;19941;-60
2022/05/05 10:54:39;;;;;;;;;;;19.90;93.90;;;;;;5001474;28;19938;-59
2022/05/05 10:57:24;;;;;;;;;;;19.90;94.00;;;;;;4991283;28;19932;-60
2022/05/05 11:00:14;;;;;;;;;;;19.90;94.00;;;;;;4991486;28;19934;-60
2022/05/05 11:02:56;;;;;;;;;;;19.90;94.00;;;;;;4990444;28;20378;-57
2022/05/05 11:05:30;;;;;;;;;;;19.90;94.00;;;;;;4995196;28;19925;-60
2022/05/05 11:08:10;;;;;;;;;;;20.00;94.00;;;;;;4990754;28;19930;-58
2022/05/05 11:10:47;;;;;;;;;;;20.00;94.00;;;;;;4994937;28;20317;-55
2022/05/05 11:13:33;;;;;;;;;;;20.00;93.90;;;;;;5001253;28;19929;-57
2022/05/05 11:22:04;;;;;;;;;;;20.00;93.90;;;;;;4999107;28;19929;-58
2022/05/05 11:24:31;;;;;;;;;;;20.00;94.00;;;;;;4990122;28;19930;-59
2022/05/05 11:26:59;;;;;;;;;;;20.00;94.00;;;;;;4997935;28;20420;-59
2022/05/05 11:29:33;;;;;;;;;;;20.10;94.00;;;;;;5000827;28;19930;-59
2022/05/05 11:32:02;;;;;;;;;;;20.00;94.00;;;;;;4989849;28;19936;-61
2022/05/05 11:34:33;;;;;;;;;;;20.10;94.30;;;;;;4998544;28;19937;-58
2022/05/05 11:37:01;;;;;;;;;;;20.10;94.00;;;;;;4990076;28;19930;-59
2022/05/05 11:39:31;;;;;;;;;;;20.10;94.00;;;;;;4998132;28;19929;-59
2022/05/05 11:42:08;;;;;;;;;;;20.10;94.10;;;;;;4992386;28;19926;-60
2022/05/05 11:44:40;;;;;;;;;;;20.10;94.10;;;;;;5009488;28;19937;-60
2022/05/05 11:47:11;;;;;;;;;;;20.10;94.00;;;;;;5013742;28;19937;-59
2022/05/05 11:49:40;;;;;;;;;;;20.10;94.00;;;;;;4998669;28;19933;-58
2022/05/05 11:52:07;;;;;;;;;;;20.10;94.00;;;;;;5007089;28;20290;-58
2022/05/05 11:54:34;;;;;;;;;;;20.20;94.00;;;;;;4992404;28;20409;-61
2022/05/05 11:57:01;;;;;;;;;;;20.10;94.00;;;;;;4990123;28;19937;-58
2022/05/05 12:02:19;;;;;;;;;;;20.10;94.00;;;;;;4995612;28;19934;-57
2022/05/05 12:04:49;;;;;;;;;;;20.10;94.10;;;;;;4994070;28;19929;-58
2022/05/05 12:07:20;;;;;;;;;;;20.10;94.10;;;;;;5007571;28;19929;-58
2022/05/05 12:09:48;;;;;;;;;;;20.10;94.10;;;;;;5001488;28;19929;-59
2022/05/05 12:12:20;;;;;;;;;;;20.10;94.10;;;;;;5003095;28;21946;-57
2022/05/05 12:14:54;;;;;;;;;;;20.10;94.20;;;;;;4990608;28;19926;-60
2022/05/05 12:17:23;;;;;;;;;;;20.10;94.10;;;;;;5010946;28;19929;-60
2022/05/05 12:19:52;;;;;;;;;;;20.10;94.10;;;;;;4991934;28;19945;-59
2022/05/05 12:22:21;;;;;;;;;;;20.10;94.10;;;;;;4997162;28;19926;-58
2022/05/05 12:24:49;;;;;;;;;;;20.10;94.10;;;;;;4991814;28;20024;-58
2022/05/05 12:27:17;;;;;;;;;;;20.10;94.10;;;;;;4992017;28;19929;-57
2022/05/05 12:29:45;;;;;;;;;;;20.20;94.10;;;;;;4989761;28;19949;-58
2022/05/05 12:32:17;;;;;;;;;;;20.20;94.10;;;;;;4995309;28;20332;-58
2022/05/05 12:34:44;;;;;;;;;;;20.10;94.10;;;;;;4993411;28;20278;-60
2022/05/05 12:37:11;;;;;;;;;;;20.20;94.10;;;;;;5006898;28;19929;-55
2022/05/05 12:40:08;;;;;;;;;;;20.20;94.10;;;;;;5001518;28;20301;-56
2022/05/05 12:42:39;;;;;;;;;;;20.20;94.10;;;;;;4991460;28;19960;-58
2022/05/05 12:45:16;;;;;;;;;;;20.20;94.30;;;;;;4997015;28;20478;-59
2022/05/05 12:47:45;;;;;;;;;;;20.20;94.10;;;;;;4996363;28;19936;-61
2022/05/05 12:50:31;;;;;;;;;;;20.20;94.10;;;;;;4989610;28;19925;-58
2022/05/05 13:01:42;;;;;;;;;;;20.30;94.00;;;;;;4993241;28;19934;-58
2022/05/05 13:04:12;;;;;;;;;;;20.30;94.00;;;;;;5001581;28;19936;-59
2022/05/05 13:06:39;;;;;;;;;;;20.30;94.00;;;;;;4998486;28;19933;-54
2022/05/05 13:09:08;;;;;;;;;;;20.30;94.00;;;;;;5008301;28;19929;-60
2022/05/05 13:11:40;;;;;;;;;;;20.30;94.00;;;;;;5004666;28;19929;-57
2022/05/05 13:14:07;;;;;;;;;;;20.40;93.90;;;;;;5004053;28;20381;-59
2022/05/05 13:16:35;;;;;;;;;;;20.40;93.90;;;;;;5001258;28;19982;-61
2022/05/05 13:19:03;;;;;;;;;;;20.40;93.80;;;;;;4987147;28;19925;-59
2022/05/05 13:21:33;;;;;;;;;;;20.40;93.80;;;;;;4999254;28;19948;-60
2022/05/05 13:24:00;;;;;;;;;;;20.50;93.80;;;;;;4988285;28;20036;-58
2022/05/05 13:26:28;;;;;;;;;;;20.50;93.70;;;;;;4996791;28;19930;-56
2022/05/05 13:28:55;;;;;;;;;;;20.50;93.70;;;;;;4988466;28;19934;-58
2022/05/05 13:31:23;;;;;;;;;;;20.50;93.70;;;;;;5005001;28;19932;-59
2022/05/05 13:33:50;;;;;;;;;;;20.50;93.70;;;;;;5006990;28;19930;-59
2022/05/05 13:36:17;;;;;;;;;;;20.50;93.70;;;;;;5004058;28;20327;-60
2022/05/05 13:38:44;;;;;;;;;;;20.50;93.70;;;;;;4995427;28;20326;-58
2022/05/05 13:41:34;;;;;;;;;;;20.50;93.70;;;;;;4998400;28;19956;-59
2022/05/05 13:44:02;;;;;;;;;;;20.50;93.60;;;;;;4993783;28;19925;-60
2022/05/05 13:46:30;;;;;;;;;;;20.50;93.60;;;;;;5004519;28;19940;-58
2022/05/05 13:48:58;;;;;;;;;;;20.60;93.60;;;;;;4991300;28;20312;-60
2022/05/05 13:51:25;;;;;;;;;;;20.60;93.50;;;;;;5002251;28;20160;-59
2022/05/05 13:53:52;;;;;;;;;;;20.70;93.50;;;;;;4996559;28;19933;-60
2022/05/05 13:56:19;;;;;;;;;;;20.70;93.50;;;;;;4988988;28;19941;-59
2022/05/05 13:58:46;;;;;;;;;;;20.70;93.50;;;;;;5001190;28;19930;-56
2022/05/05 14:01:13;;;;;;;;;;;20.60;93.40;;;;;;5000503;28;19929;-59
2022/05/05 14:03:45;;;;;;;;;;;20.70;93.40;;;;;;5005688;28;19933;-57
2022/05/05 14:06:14;;;;;;;;;;;20.60;93.40;;;;;;5002478;28;19936;-58
2022/05/05 14:14:13;;;;;;;;;;;20.60;93.50;;;;;;5016257;28;19936;-59
2022/05/05 14:16:41;;;;;;;;;;;20.60;93.50;;;;;;5013944;28;19925;-60
2022/05/05 14:19:09;;;;;;;;;;;20.60;93.60;;;;;;4998002;28;19926;-65
2022/05/05 14:21:36;;;;;;;;;;;20.60;93.60;;;;;;5012748;28;19936;-63
2022/05/05 14:24:03;;;;;;;;;;;20.60;93.60;;;;;;5007348;28;19936;-59
2022/05/05 14:26:31;;;;;;;;;;;20.50;93.60;;;;;;5001776;28;20461;-59
2022/05/05 14:29:01;;;;;;;;;;;20.60;93.60;;;;;;4999712;28;20458;-60
2022/05/05 14:31:28;;;;;;;;;;;20.60;93.50;;;;;;5008282;28;19930;-58
2022/05/05 14:33:56;;;;;;;;;;;20.50;93.50;;;;;;5006562;28;19930;-59
2022/05/05 14:36:24;;;;;;;;;;;20.60;93.60;;;;;;4997791;28;19925;-58
2022/05/05 14:38:51;;;;;;;;;;;20.50;93.50;;;;;;5004679;28;19926;-60
2022/05/05 14:41:20;;;;;;;;;;;20.50;93.60;;;;;;5006635;28;19925;-58
2022/05/05 14:43:47;;;;;;;;;;;20.50;93.60;;;;;;4995203;28;20294;-57
2022/05/05 14:46:15;;;;;;;;;;;20.50;93.60;;;;;;5011757;28;19937;-57
2022/05/05 14:48:42;;;;;;;;;;;20.50;93.60;;;;;;5002926;28;20323;-59
2022/05/05 14:51:09;;;;;;;;;;;20.50;93.50;;;;;;5007360;28;20248;-58
2022/05/05 14:53:37;;;;;;;;;;;20.50;93.50;;;;;;4991637;28;20329;-57
2022/05/05 14:56:04;;;;;;;;;;;20.50;93.50;;;;;;5009045;28;20405;-59
2022/05/05 14:58:31;;;;;;;;;;;20.50;93.50;;;;;;5012171;28;19937;-56
2022/05/05 15:00:59;;;;;;;;;;;20.50;93.50;;;;;;4999908;28;19937;-58
2022/05/05 15:03:26;;;;;;;;;;;20.60;93.40;;;;;;5004339;28;20393;-59
2022/05/05 15:05:54;;;;;;;;;;;20.60;93.40;;;;;;4996772;28;19952;-56
2022/05/05 15:08:23;;;;;;;;;;;20.60;93.40;;;;;;4989975;28;19941;-60
2022/05/05 15:10:50;;;;;;;;;;;20.60;93.40;;;;;;5007335;28;19932;-60
2022/05/05 15:13:18;;;;;;;;;;;20.60;93.40;;;;;;4991637;28;20337;-59
2022/05/05 15:15:45;;;;;;;;;;;20.60;93.50;;;;;;5007624;28;19937;-59
2022/05/05 15:18:13;;;;;;;;;;;20.60;93.50;;;;;;5008353;28;19952;-58
2022/05/05 15:20:40;;;;;;;;;;;20.60;93.40;;;;;;5001266;28;19929;-58
2022/05/05 15:23:07;;;;;;;;;;;20.70;93.40;;;;;;5006587;28;19952;-62